Time;durP1;ratioP1;P1;durP2;ratioP2;P2;SDS_P1;SDS_P2;PMS_P1;PMS_P2;Temp;Humidity;BMP_temperature;BMP_pressure;BME280_temperature;BME280_humidity;BME280_pressure;Samples;Min_cycle;Max_cycle;Signal;HPM_P1;HPM_P2
2023/12/23 00:02:27;;;;;;;1.17;0.47;;;;;;;6.65;100.00;99772.13;5002012;28;20281;-69
2023/12/23 00:04:53;;;;;;;0.43;0.20;;;;;;;6.39;100.00;99754.94;5003683;28;20709;-68
2023/12/23 00:07:20;;;;;;;0.47;0.47;;;;;;;6.33;100.00;99794.25;5001949;28;20264;-67
2023/12/23 00:09:46;;;;;;;1.30;0.50;;;;;;;6.43;100.00;99804.13;4998347;28;20575;-70
2023/12/23 00:12:12;;;;;;;0.30;0.30;;;;;;;6.35;100.00;99813.59;5006671;28;20210;-70
2023/12/23 00:14:39;;;;;;;0.93;0.63;;;;;;;6.25;100.00;99805.50;5005334;28;20200;-70
2023/12/23 00:17:05;;;;;;;0.40;0.40;;;;;;;6.19;100.00;99799.25;5005018;28;20287;-68
2023/12/23 00:19:32;;;;;;;1.63;0.40;;;;;;;6.11;100.00;99804.34;5009405;28;20271;-68
2023/12/23 00:21:58;;;;;;;0.30;0.30;;;;;;;6.02;100.00;99804.16;5008725;28;20591;-68
2023/12/23 00:24:26;;;;;;;0.50;0.50;;;;;;;5.89;100.00;99815.19;5002056;28;20389;-73
2023/12/23 00:26:53;;;;;;;1.37;0.50;;;;;;;5.92;100.00;99850.34;5007146;28;20577;-68
2023/12/23 00:29:19;;;;;;;0.40;0.40;;;;;;;6.11;100.00;99838.53;5005446;28;20226;-72
2023/12/23 00:31:46;;;;;;;1.50;0.73;;;;;;;6.15;100.00;99853.50;4992339;28;20199;-68
2023/12/23 00:34:12;;;;;;;0.57;0.50;;;;;;;6.02;100.00;99848.84;5006367;28;20227;-68
2023/12/23 00:36:38;;;;;;;0.80;0.60;;;;;;;6.04;100.00;99836.63;5008684;28;20638;-68
2023/12/23 00:39:05;;;;;;;1.70;0.50;;;;;;;5.78;100.00;99845.59;5006562;28;20220;-71
2023/12/23 00:41:32;;;;;;;0.67;0.57;;;;;;;5.64;100.00;99854.03;5009097;28;20231;-68
2023/12/23 00:43:58;;;;;;;0.47;0.47;;;;;;;5.65;100.00;99862.81;5008347;28;20588;-70
2023/12/23 00:46:24;;;;;;;0.93;0.60;;;;;;;5.64;100.00;99859.28;5006649;28;20689;-69
2023/12/23 00:48:51;;;;;;;0.97;0.50;;;;;;;5.57;100.00;99859.06;5009092;28;20588;-68
2023/12/23 00:51:17;;;;;;;1.13;0.60;;;;;;;5.57;100.00;99861.69;5008447;28;20202;-71
2023/12/23 00:53:44;;;;;;;1.23;0.77;;;;;;;5.60;100.00;99870.56;5006306;28;20198;-69
2023/12/23 00:56:21;;;;;;;0.97;0.60;;;;;;;5.78;100.00;99870.13;5007938;28;20209;-73
2023/12/23 00:58:48;;;;;;;1.27;0.70;;;;;;;5.75;100.00;99877.94;5009136;28;20714;-69
2023/12/23 01:01:15;;;;;;;2.10;0.60;;;;;;;5.73;100.00;99868.25;5007740;28;20210;-70
2023/12/23 01:03:43;;;;;;;1.30;0.73;;;;;;;5.74;100.00;99870.91;5006688;28;20289;-72
2023/12/23 01:06:10;;;;;;;1.33;1.23;;;;;;;6.04;100.00;99883.91;5005434;28;20202;-71
2023/12/23 01:08:36;;;;;;;2.37;0.67;;;;;;;5.92;100.00;99879.25;5023821;28;20716;-68
2023/12/23 01:11:03;;;;;;;1.30;0.67;;;;;;;6.00;100.00;99889.03;5007170;28;20313;-71
2023/12/23 01:13:29;;;;;;;4.53;0.60;;;;;;;5.94;100.00;99879.28;5003545;28;20209;-73
2023/12/23 01:15:56;;;;;;;1.37;0.80;;;;;;;5.92;100.00;99895.00;5007579;28;20245;-71
2023/12/23 01:18:22;;;;;;;1.40;0.63;;;;;;;5.97;100.00;99897.75;5006025;28;20238;-69
2023/12/23 01:20:49;;;;;;;0.60;0.60;;;;;;;6.13;100.00;99920.03;5005342;28;20656;-68
2023/12/23 01:23:15;;;;;;;3.03;0.97;;;;;;;6.18;100.00;99903.53;5003913;28;20299;-68
2023/12/23 01:25:42;;;;;;;1.30;0.80;;;;;;;6.22;100.00;99917.63;5003880;28;20214;-68
2023/12/23 01:28:09;;;;;;;1.30;0.90;;;;;;;6.24;100.00;99906.28;5019291;28;20310;-68
2023/12/23 01:30:36;;;;;;;2.03;0.70;;;;;;;6.22;100.00;99907.09;5003645;28;20219;-68
2023/12/23 01:33:02;;;;;;;1.23;0.70;;;;;;;6.30;100.00;99897.63;5004297;28;20414;-70
2023/12/23 01:35:29;;;;;;;2.90;1.50;;;;;;;6.27;100.00;99905.47;5002400;28;20202;-68
2023/12/23 01:37:55;;;;;;;0.63;0.63;;;;;;;6.44;100.00;99911.13;4998476;28;20201;-69
2023/12/23 01:40:25;;;;;;;3.60;0.70;;;;;;;6.29;100.00;99907.28;5002866;28;20579;-69
2023/12/23 01:42:52;;;;;;;0.80;0.60;;;;;;;6.42;100.00;99918.97;5004258;28;20207;-69
2023/12/23 01:45:18;;;;;;;1.87;0.60;;;;;;;6.41;100.00;99913.69;5006183;28;20203;-68
2023/12/23 01:47:48;;;;;;;2.30;0.83;;;;;;;6.45;100.00;99916.41;5005073;28;20290;-68
2023/12/23 01:50:21;;;;;;;2.17;0.87;;;;;;;6.47;100.00;99921.72;5005477;28;20230;-69
2023/12/23 01:52:53;;;;;;;1.70;0.73;;;;;;;6.51;100.00;99932.31;4994969;28;20212;-68
2023/12/23 01:55:19;;;;;;;3.50;0.83;;;;;;;6.50;100.00;99929.66;4998677;28;20665;-69
2023/12/23 01:57:46;;;;;;;4.13;1.10;;;;;;;6.39;100.00;99934.66;5007530;28;20202;-68
2023/12/23 02:00:12;;;;;;;2.37;0.80;;;;;;;6.41;100.00;99934.72;5006161;28;20687;-68
2023/12/23 02:02:40;;;;;;;1.47;0.70;;;;;;;6.41;100.00;99945.25;5004008;28;20573;-68
2023/12/23 02:05:07;;;;;;;4.00;0.93;;;;;;;6.42;100.00;99947.03;4996919;28;20204;-69
2023/12/23 02:07:35;;;;;;;1.17;0.77;;;;;;;6.50;100.00;99946.34;5002723;28;20204;-69
2023/12/23 02:10:03;;;;;;;2.93;0.97;;;;;;;6.53;100.00;99953.41;5002376;28;20610;-69
2023/12/23 02:12:40;;;;;;;3.20;1.40;;;;;;;6.52;100.00;99959.53;5006535;28;20203;-67
2023/12/23 02:15:14;;;;;;;0.90;0.70;;;;;;;6.48;100.00;99955.94;5000232;28;20207;-68
2023/12/23 02:17:41;;;;;;;1.00;0.73;;;;;;;6.40;100.00;99943.44;4999880;28;20208;-68
2023/12/23 02:20:08;;;;;;;1.87;0.73;;;;;;;6.49;100.00;99956.81;4999170;28;20220;-70
2023/12/23 02:22:35;;;;;;;1.30;0.90;;;;;;;6.49;100.00;99964.72;5002215;28;20206;-68
2023/12/23 02:25:02;;;;;;;0.60;0.60;;;;;;;6.38;100.00;99951.28;5002425;28;20203;-68
2023/12/23 02:27:34;;;;;;;2.33;0.73;;;;;;;6.39;100.00;99958.31;5005574;28;20223;-72
2023/12/23 02:30:01;;;;;;;1.87;0.80;;;;;;;6.44;100.00;99969.88;5003208;28;20231;-68
2023/12/23 02:32:30;;;;;;;3.60;0.77;;;;;;;6.40;100.00;99962.72;4999380;28;20203;-72
2023/12/23 02:34:56;;;;;;;1.23;0.77;;;;;;;6.36;100.00;99949.47;5002891;28;20211;-67
2023/12/23 02:37:23;;;;;;;1.30;0.77;;;;;;;6.34;100.00;99954.72;5003759;28;20212;-68
2023/12/23 02:39:49;;;;;;;0.60;0.60;;;;;;;6.34;100.00;99944.19;5007384;28;20221;-69
2023/12/23 02:42:16;;;;;;;2.03;0.60;;;;;;;6.31;100.00;99938.84;5000996;28;20207;-70
2023/12/23 02:44:42;;;;;;;0.70;0.63;;;;;;;6.27;100.00;99918.59;5001064;28;20204;-71
2023/12/23 02:47:08;;;;;;;1.50;0.70;;;;;;;6.22;100.00;99928.13;4999824;28;20739;-68
2023/12/23 02:49:35;;;;;;;0.57;0.57;;;;;;;6.26;100.00;99920.34;5005242;28;20219;-68
2023/12/23 02:52:01;;;;;;;1.97;0.63;;;;;;;6.31;100.00;99919.56;5006498;28;20307;-68
2023/12/23 02:54:28;;;;;;;1.07;0.60;;;;;;;6.31;100.00;99927.47;5004264;28;20889;-68
2023/12/23 02:56:55;;;;;;;0.60;0.50;;;;;;;6.29;100.00;99930.06;5005842;28;20207;-68
2023/12/23 02:59:22;;;;;;;0.77;0.60;;;;;;;6.28;100.00;99923.91;5005587;28;20654;-68
2023/12/23 03:01:48;;;;;;;1.77;0.60;;;;;;;6.29;100.00;99933.56;5001320;28;20212;-70
2023/12/23 03:04:15;;;;;;;0.50;0.50;;;;;;;6.34;100.00;99932.78;5005552;28;20204;-69
2023/12/23 03:06:41;;;;;;;0.50;0.50;;;;;;;6.29;100.00;99925.69;5005796;28;20208;-69
2023/12/23 03:09:08;;;;;;;0.70;0.50;;;;;;;6.28;100.00;99913.38;5007736;28;20225;-68
2023/12/23 03:11:36;;;;;;;0.80;0.67;;;;;;;6.29;100.00;99909.91;5007198;28;20593;-68
2023/12/23 03:14:03;;;;;;;1.43;0.70;;;;;;;6.36;100.00;99920.56;5002264;28;20263;-69
2023/12/23 03:16:34;;;;;;;1.17;0.60;;;;;;;6.37;100.00;99914.44;4999966;28;20208;-69
2023/12/23 03:19:00;;;;;;;0.60;0.60;;;;;;;6.41;100.00;99904.06;5000509;28;20235;-69
2023/12/23 03:21:27;;;;;;;0.63;0.50;;;;;;;6.42;100.00;99903.19;5007368;28;20205;-68
2023/12/23 03:23:53;;;;;;;1.30;0.77;;;;;;;6.42;100.00;99890.03;5006767;28;20219;-68
2023/12/23 03:26:20;;;;;;;3.43;0.80;;;;;;;6.50;100.00;99896.34;5006450;28;20666;-68
2023/12/23 03:28:46;;;;;;;2.80;0.87;;;;;;;6.50;100.00;99888.47;5000491;28;20277;-70
2023/12/23 03:31:13;;;;;;;2.13;1.03;;;;;;;6.58;100.00;99883.34;5006441;28;20591;-70
2023/12/23 03:33:40;;;;;;;0.93;0.80;;;;;;;6.62;100.00;99887.81;5002832;28;20203;-69
2023/12/23 03:36:07;;;;;;;1.20;1.03;;;;;;;6.67;100.00;99870.38;5003502;28;20586;-69
2023/12/23 03:38:33;;;;;;;2.23;1.20;;;;;;;6.67;100.00;99870.38;5006228;28;20231;-72
2023/12/23 03:40:59;;;;;;;1.97;1.10;;;;;;;6.81;100.00;99861.06;5008550;28;20712;-68
2023/12/23 03:43:26;;;;;;;1.97;1.33;;;;;;;6.93;100.00;99855.13;5007702;28;20667;-68
2023/12/23 03:45:52;;;;;;;2.07;1.30;;;;;;;6.89;100.00;99850.66;4997915;28;20557;-69
2023/12/23 03:48:19;;;;;;;2.97;1.57;;;;;;;6.98;100.00;99839.41;5004775;28;20224;-68
2023/12/23 03:50:45;;;;;;;2.23;1.40;;;;;;;6.98;100.00;99836.78;5009309;28;20231;-69
2023/12/23 03:53:12;;;;;;;2.33;1.60;;;;;;;6.96;100.00;99838.50;4999655;28;20215;-70
2023/12/23 03:55:39;;;;;;;3.20;1.63;;;;;;;7.07;100.00;99837.84;5006877;28;20205;-72
2023/12/23 03:58:05;;;;;;;3.77;1.50;;;;;;;7.04;100.00;99835.16;5004568;28;20282;-70
2023/12/23 04:00:32;;;;;;;4.07;1.60;;;;;;;7.06;100.00;99825.53;4999756;28;20207;-69
2023/12/23 04:02:58;;;;;;;2.60;1.60;;;;;;;7.09;100.00;99833.47;5005578;28;20774;-70
2023/12/23 04:05:25;;;;;;;3.03;1.87;;;;;;;7.11;100.00;99836.16;5002669;28;20282;-68
2023/12/23 04:07:51;;;;;;;4.80;1.70;;;;;;;7.26;100.00;99838.19;5004649;28;20286;-68
2023/12/23 04:10:18;;;;;;;2.90;1.60;;;;;;;7.34;100.00;99815.50;5001394;28;20234;-68
2023/12/23 04:12:44;;;;;;;2.70;1.57;;;;;;;7.44;100.00;99812.16;5003834;28;20307;-68
2023/12/23 04:15:11;;;;;;;7.10;1.77;;;;;;;7.51;100.00;99791.19;5007293;28;20300;-68
2023/12/23 04:17:41;;;;;;;3.43;1.87;;;;;;;7.58;100.00;99812.38;5005143;28;20212;-68
2023/12/23 04:20:08;;;;;;;3.63;1.50;;;;;;;7.58;100.00;99807.97;5005218;28;20219;-67
2023/12/23 04:22:35;;;;;;;5.43;1.60;;;;;;;7.55;100.00;99795.66;5000013;28;20197;-68
2023/12/23 04:25:02;;;;;;;3.43;1.60;;;;;;;7.62;100.00;99812.47;5004670;28;20215;-68
2023/12/23 04:27:28;;;;;;;2.70;1.30;;;;;;;7.66;100.00;99792.31;5003775;28;20203;-71
2023/12/23 04:29:54;;;;;;;3.97;1.30;;;;;;;7.59;100.00;99799.22;4996934;28;20225;-68
2023/12/23 04:32:21;;;;;;;4.33;1.30;;;;;;;7.67;100.00;99784.44;5004287;28;20206;-68
2023/12/23 04:34:47;;;;;;;4.77;1.70;;;;;;;7.69;100.00;99787.09;5004950;28;20201;-68
2023/12/23 04:37:13;;;;;;;2.80;1.43;;;;;;;7.65;100.00;99786.16;5020152;28;20235;-67
2023/12/23 04:39:40;;;;;;;2.73;1.27;;;;;;;7.65;100.00;99785.28;5004945;28;20223;-71
2023/12/23 04:42:06;;;;;;;3.77;1.17;;;;;;;7.65;100.00;99787.91;5001929;28;20212;-70
2023/12/23 04:44:33;;;;;;;2.17;1.27;;;;;;;7.60;100.00;99782.53;4998568;28;20220;-68
2023/12/23 04:46:59;;;;;;;3.03;1.10;;;;;;;7.54;100.00;99778.06;5004105;28;20656;-68
2023/12/23 04:49:25;;;;;;;1.80;1.20;;;;;;;7.59;100.00;99791.31;5002216;28;20303;-68
2023/12/23 04:51:52;;;;;;;3.73;1.13;;;;;;;7.55;100.00;99789.50;5002110;28;20284;-68
2023/12/23 04:54:18;;;;;;;2.73;1.20;;;;;;;7.61;100.00;99789.63;5002877;28;20200;-69
2023/12/23 04:56:45;;;;;;;3.50;1.40;;;;;;;7.62;100.00;99783.47;5004763;28;20218;-71
2023/12/23 04:59:12;;;;;;;2.77;1.00;;;;;;;7.72;100.00;99773.94;5006070;28;20320;-68
2023/12/23 05:01:38;;;;;;;2.63;0.90;;;;;;;7.72;100.00;99768.69;5004565;28;20215;-68
2023/12/23 05:04:05;;;;;;;1.73;0.93;;;;;;;7.75;100.00;99761.69;5003748;28;20216;-68
2023/12/23 05:06:31;;;;;;;2.43;0.90;;;;;;;7.72;100.00;99769.56;5004247;28;20201;-69
2023/12/23 05:08:57;;;;;;;2.40;0.90;;;;;;;7.75;100.00;99763.44;5003778;28;20769;-70
2023/12/23 05:11:24;;;;;;;5.50;0.80;;;;;;;7.91;100.00;99769.81;5006831;28;20228;-67
2023/12/23 05:13:50;;;;;;;1.90;1.10;;;;;;;7.81;100.00;99761.78;5001258;28;20200;-68
2023/12/23 05:16:17;;;;;;;1.40;1.10;;;;;;;7.88;100.00;99759.22;5003784;28;20476;-68
2023/12/23 05:18:43;;;;;;;2.20;1.30;;;;;;;8.00;100.00;99760.28;5008314;28;20227;-68
2023/12/23 05:21:10;;;;;;;3.60;0.80;;;;;;;8.01;100.00;99763.84;5006681;28;20197;-68
2023/12/23 05:23:36;;;;;;;4.87;1.00;;;;;;;8.09;100.00;99756.91;5001370;28;20205;-71
2023/12/23 05:26:03;;;;;;;1.27;0.90;;;;;;;8.08;100.00;99745.47;5005641;28;20219;-69
2023/12/23 05:28:29;;;;;;;3.97;1.03;;;;;;;8.10;100.00;99756.91;5003201;28;20780;-68
2023/12/23 05:30:55;;;;;;;4.13;0.80;;;;;;;8.03;100.00;99749.81;5004238;28;20230;-69
2023/12/23 05:33:24;;;;;;;1.77;0.90;;;;;;;8.09;100.00;99762.19;4998805;28;20208;-68
2023/12/23 05:35:51;;;;;;;1.60;0.70;;;;;;;8.15;100.00;99742.03;4997464;28;20233;-70
2023/12/23 05:38:17;;;;;;;1.67;0.83;;;;;;;8.08;100.00;99744.59;5003060;28;20767;-70
2023/12/23 05:40:44;;;;;;;1.97;0.87;;;;;;;8.21;100.00;99732.44;5000090;28;20249;-70
2023/12/23 05:43:11;;;;;;;1.83;0.80;;;;;;;8.16;100.00;99746.44;5005920;28;20286;-68
2023/12/23 05:45:37;;;;;;;1.10;0.60;;;;;;;8.21;100.00;99737.69;4998357;28;20613;-68
2023/12/23 05:48:04;;;;;;;2.63;0.97;;;;;;;8.14;100.00;99745.53;5005376;28;20208;-68
2023/12/23 05:50:31;;;;;;;2.27;0.70;;;;;;;8.08;100.00;99745.47;5000833;28;20256;-69
2023/12/23 05:52:57;;;;;;;1.23;0.60;;;;;;;8.08;100.00;99755.13;5000183;28;20698;-68
2023/12/23 05:55:24;;;;;;;1.37;0.50;;;;;;;8.06;100.00;99751.59;5001002;28;20240;-68
2023/12/23 05:57:50;;;;;;;2.07;0.87;;;;;;;8.14;100.00;99742.03;5000309;28;20289;-69
2023/12/23 06:00:19;;;;;;;1.40;0.80;;;;;;;8.10;100.00;99749.00;4989130;23;20234;-67
2023/12/23 06:02:46;;;;;;;1.33;0.60;;;;;;;8.17;100.00;99744.69;4984420;28;20214;-67
2023/12/23 06:05:12;;;;;;;0.67;0.67;;;;;;;8.21;100.00;99738.59;4982878;28;20201;-67
2023/12/23 06:07:39;;;;;;;0.87;0.60;;;;;;;8.23;100.00;99743.88;4986046;28;20291;-67
2023/12/23 06:10:06;;;;;;;0.80;0.53;;;;;;;8.30;100.00;99740.44;4986137;28;20699;-65
2023/12/23 06:12:32;;;;;;;1.73;0.53;;;;;;;8.27;100.00;99735.13;4986971;28;20210;-68
2023/12/23 06:14:59;;;;;;;0.97;0.70;;;;;;;8.32;100.00;99743.97;4993551;28;20691;-67
2023/12/23 06:17:26;;;;;;;0.77;0.50;;;;;;;8.26;100.00;99738.63;4989426;28;20245;-67
2023/12/23 06:19:53;;;;;;;1.60;0.90;;;;;;;8.31;100.00;99731.66;4989010;28;20226;-68
2023/12/23 06:22:19;;;;;;;0.90;0.50;;;;;;;8.32;100.00;99728.16;5003331;28;20209;-67
2023/12/23 06:24:46;;;;;;;4.30;0.90;;;;;;;8.30;100.00;99729.88;4983679;28;20208;-67
2023/12/23 06:27:12;;;;;;;1.93;0.50;;;;;;;8.29;100.00;99709.66;4988280;28;20209;-70
2023/12/23 06:29:39;;;;;;;4.03;0.80;;;;;;;8.38;100.00;99713.31;4987292;28;20228;-68
2023/12/23 06:32:05;;;;;;;2.17;0.50;;;;;;;8.45;100.00;99706.38;5004121;28;20207;-67
2023/12/23 06:34:32;;;;;;;1.40;1.23;;;;;;;8.35;100.00;99713.28;4985149;28;20215;-68
2023/12/23 06:36:58;;;;;;;2.17;0.70;;;;;;;8.52;100.00;99716.13;4989070;28;20710;-67
2023/12/23 06:39:25;;;;;;;2.03;0.63;;;;;;;8.49;100.00;99697.63;4990003;28;20320;-67
2023/12/23 06:41:51;;;;;;;1.37;0.80;;;;;;;8.50;100.00;99704.66;4986626;28;20201;-67
2023/12/23 06:44:18;;;;;;;1.37;0.80;;;;;;;8.56;100.00;99699.44;4983014;28;20217;-67
2023/12/23 06:46:44;;;;;;;1.97;0.60;;;;;;;8.54;100.00;99706.47;4994082;28;20203;-68
2023/12/23 06:49:11;;;;;;;2.50;0.90;;;;;;;8.54;100.00;99709.09;4992161;28;20252;-68
2023/12/23 06:51:37;;;;;;;1.63;0.80;;;;;;;8.56;100.00;99710.00;4992250;28;20764;-67
2023/12/23 06:54:04;;;;;;;1.47;0.60;;;;;;;8.67;100.00;99702.19;4986952;28;20206;-66
2023/12/23 06:56:30;;;;;;;3.60;0.70;;;;;;;8.77;100.00;99715.47;4986392;28;20233;-65
2023/12/23 06:58:59;;;;;;;3.70;0.60;;;;;;;8.67;100.00;99710.09;4985110;28;20252;-67
2023/12/23 07:01:35;;;;;;;0.60;0.60;;;;;;;8.70;100.00;99715.41;4986512;28;22220;-69
2023/12/23 07:04:01;;;;;;;2.90;0.80;;;;;;;8.66;100.00;99716.25;4982262;28;20215;-67
2023/12/23 07:06:28;;;;;;;1.43;0.67;;;;;;;8.63;100.00;99718.88;4987846;28;20208;-67
2023/12/23 07:08:54;;;;;;;3.10;0.60;;;;;;;8.54;100.00;99724.94;4989031;28;20227;-67
2023/12/23 07:11:21;;;;;;;3.63;0.70;;;;;;;8.63;100.00;99725.03;4986623;28;20693;-66
2023/12/23 07:13:47;;;;;;;1.07;0.50;;;;;;;8.66;100.00;99740.91;4983528;28;20209;-68
2023/12/23 07:16:14;;;;;;;1.20;0.50;;;;;;;8.54;100.00;99727.56;4988741;28;20666;-69
2023/12/23 07:18:40;;;;;;;1.10;0.60;;;;;;;8.39;100.00;99735.31;4983606;28;20232;-67
2023/12/23 07:21:07;;;;;;;2.47;0.80;;;;;;;8.39;100.00;99736.19;4987269;28;20260;-67
2023/12/23 07:23:33;;;;;;;1.70;0.60;;;;;;;8.26;100.00;99728.09;4981667;28;20209;-68
2023/12/23 07:26:01;;;;;;;0.77;0.60;;;;;;;8.25;100.00;99726.31;4996080;28;20220;-66
2023/12/23 07:28:28;;;;;;;3.87;0.80;;;;;;;8.28;100.00;99735.16;4988279;28;20204;-67
2023/12/23 07:30:54;;;;;;;1.13;0.60;;;;;;;8.25;100.00;99723.69;4988018;28;20223;-68
2023/12/23 07:33:21;;;;;;;2.17;0.63;;;;;;;8.18;100.00;99726.25;4981888;28;20272;-67
2023/12/23 07:35:48;;;;;;;3.33;0.63;;;;;;;8.13;100.00;99730.59;4985632;28;20206;-67
2023/12/23 07:38:14;;;;;;;2.40;0.87;;;;;;;8.12;100.00;99723.53;4991623;28;20233;-67
2023/12/23 07:40:41;;;;;;;3.07;0.67;;;;;;;8.10;100.00;99730.53;4991973;28;20230;-67
2023/12/23 07:43:07;;;;;;;1.20;0.70;;;;;;;8.20;100.00;99733.28;4990678;28;20290;-68
2023/12/23 07:45:34;;;;;;;1.13;0.70;;;;;;;8.18;100.00;99723.59;5004432;28;20632;-67
2023/12/23 07:48:00;;;;;;;2.40;0.80;;;;;;;8.16;100.00;99721.81;4990488;28;20213;-67
2023/12/23 07:50:27;;;;;;;1.90;0.90;;;;;;;8.21;100.00;99735.94;4986810;28;20583;-66
2023/12/23 07:52:54;;;;;;;1.03;0.70;;;;;;;8.16;100.00;99742.91;4991118;28;20217;-68
2023/12/23 07:55:20;;;;;;;2.23;0.70;;;;;;;8.12;100.00;99743.75;4990509;28;20740;-67
2023/12/23 07:57:46;;;;;;;2.17;0.70;;;;;;;8.15;100.00;99744.66;4990095;28;20206;-67
2023/12/23 08:00:14;;;;;;;1.33;0.80;;;;;;;8.14;100.00;99742.91;4984728;28;20239;-68
2023/12/23 08:02:40;;;;;;;3.03;0.60;;;;;;;8.14;100.00;99742.91;4991523;28;20197;-69
2023/12/23 08:05:07;;;;;;;2.87;0.70;;;;;;;8.08;100.00;99760.41;4990479;28;20201;-68
2023/12/23 08:07:36;;;;;;;1.03;0.60;;;;;;;8.07;100.00;99758.63;5003921;28;20204;-68
2023/12/23 08:10:04;;;;;;;1.53;0.80;;;;;;;8.10;100.00;99754.28;4984771;28;20760;-67
2023/12/23 08:12:30;;;;;;;0.63;0.50;;;;;;;8.15;100.00;99736.75;4986142;28;20212;-66
2023/12/23 08:14:57;;;;;;;0.90;0.60;;;;;;;8.13;100.00;99737.59;4991766;28;20216;-68
2023/12/23 08:17:23;;;;;;;0.60;0.60;;;;;;;8.26;100.00;99736.00;4982890;28;20666;-68
2023/12/23 08:19:50;;;;;;;4.50;0.90;;;;;;;8.33;100.00;99736.13;4989600;28;20300;-69
2023/12/23 08:22:16;;;;;;;3.07;0.70;;;;;;;8.37;100.00;99734.41;4992478;28;20204;-68
2023/12/23 08:24:43;;;;;;;1.70;0.60;;;;;;;8.35;100.00;99731.75;4990540;28;20673;-67
2023/12/23 08:27:10;;;;;;;2.27;0.70;;;;;;;8.36;100.00;99722.06;4990725;28;20230;-67
2023/12/23 08:29:36;;;;;;;1.70;0.77;;;;;;;8.38;100.00;99725.63;4986682;28;20710;-67
2023/12/23 08:32:03;;;;;;;1.53;0.73;;;;;;;8.43;100.00;99747.69;4991418;28;20399;-67
2023/12/23 08:34:30;;;;;;;3.43;0.60;;;;;;;8.43;100.00;99735.38;4989472;28;20205;-68
2023/12/23 08:36:57;;;;;;;0.90;0.60;;;;;;;8.53;100.00;99740.75;4984810;28;20215;-67
2023/12/23 08:39:24;;;;;;;2.60;0.60;;;;;;;8.53;100.00;99746.91;4985558;28;20293;-66
2023/12/23 08:41:50;;;;;;;1.93;0.77;;;;;;;8.67;100.00;99740.03;4992670;28;20228;-67
2023/12/23 08:44:17;;;;;;;0.83;0.50;;;;;;;8.60;100.00;99740.84;5000309;28;20207;-68
2023/12/23 08:46:44;;;;;;;2.10;0.67;;;;;;;8.62;100.00;99757.56;5009973;28;20300;-67
2023/12/23 08:49:10;;;;;;;1.20;0.60;;;;;;;8.55;100.00;99755.72;4988589;28;20279;-67
2023/12/23 08:51:38;;;;;;;1.20;0.53;;;;;;;8.59;100.00;99754.00;4992616;28;20232;-69
2023/12/23 08:54:04;;;;;;;1.07;0.50;;;;;;;8.67;100.00;99747.06;4994904;28;20213;-67
2023/12/23 08:56:30;;;;;;;1.13;0.40;;;;;;;8.72;100.00;99771.75;4980117;28;20224;-68
2023/12/23 08:58:57;;;;;;;0.47;0.40;;;;;;;8.76;100.00;99750.66;4993361;28;20408;-70
2023/12/23 09:01:23;;;;;;;0.87;0.50;;;;;;;8.79;100.00;99755.09;4991540;28;20205;-68
2023/12/23 09:03:50;;;;;;;0.53;0.40;;;;;;;8.79;100.00;99758.63;5001579;28;20297;-68
2023/12/23 09:06:17;;;;;;;1.23;0.50;;;;;;;8.83;100.00;99751.66;4998648;28;20285;-68
2023/12/23 09:08:44;;;;;;;2.30;0.63;;;;;;;8.83;100.00;99753.41;4992467;28;20222;-67
2023/12/23 09:11:10;;;;;;;0.40;0.40;;;;;;;8.85;100.00;99744.63;4999540;28;20221;-68
2023/12/23 09:13:37;;;;;;;0.40;0.40;;;;;;;8.90;100.00;99744.66;4988410;28;20231;-68
2023/12/23 09:16:04;;;;;;;0.60;0.50;;;;;;;8.89;100.00;99750.81;5001410;28;20199;-69
2023/12/23 09:18:31;;;;;;;0.80;0.53;;;;;;;8.89;100.00;99749.06;5003945;28;20226;-68
2023/12/23 09:20:58;;;;;;;0.60;0.50;;;;;;;8.95;100.00;99754.41;5017898;28;20237;-69
2023/12/23 09:23:24;;;;;;;0.87;0.70;;;;;;;9.03;100.00;99757.09;4994390;28;20700;-68
2023/12/23 09:25:51;;;;;;;0.53;0.37;;;;;;;9.08;100.00;99752.75;4992888;28;20201;-69
2023/12/23 09:28:18;;;;;;;0.60;0.60;;;;;;;9.07;100.00;99765.06;4999544;28;20200;-68
2023/12/23 09:30:44;;;;;;;0.40;0.40;;;;;;;9.09;100.00;99767.72;5008136;28;20603;-68
2023/12/23 09:33:11;;;;;;;0.70;0.60;;;;;;;9.13;100.00;99763.34;5015770;28;20205;-71
2023/12/23 09:35:37;;;;;;;0.63;0.30;;;;;;;9.13;100.00;99768.63;4995845;28;20206;-70
2023/12/23 09:38:04;;;;;;;0.50;0.50;;;;;;;9.17;100.00;99775.72;5011180;28;20216;-68
2023/12/23 09:40:30;;;;;;;0.40;0.40;;;;;;;9.15;100.00;99762.50;4996988;28;20260;-68
2023/12/23 09:42:58;;;;;;;1.43;0.50;;;;;;;9.15;100.00;99765.13;4999480;28;20228;-70
2023/12/23 09:45:26;;;;;;;0.40;0.40;;;;;;;9.17;100.00;99773.94;5000907;28;20694;-67
2023/12/23 09:47:52;;;;;;;0.50;0.47;;;;;;;9.18;100.00;99770.44;4992843;28;20214;-67
2023/12/23 09:50:19;;;;;;;0.50;0.40;;;;;;;9.22;100.00;99764.34;4998860;28;20661;-68
2023/12/23 09:52:50;;;;;;;0.87;0.40;;;;;;;9.27;100.00;99765.25;5014861;28;20227;-69
2023/12/23 09:55:17;;;;;;;0.43;0.40;;;;;;;9.33;100.00;99767.06;4987724;28;20255;-69
2023/12/23 09:57:44;;;;;;;1.00;0.33;;;;;;;9.39;100.00;99775.03;5005712;28;20209;-67
2023/12/23 10:00:12;;;;;;;0.40;0.40;;;;;;;9.40;100.00;99779.44;4988803;28;20257;-68
2023/12/23 10:02:38;;;;;;;0.70;0.50;;;;;;;9.43;100.00;99792.69;4983273;28;20281;-68
2023/12/23 10:05:06;;;;;;;1.90;0.40;;;;;;;9.38;100.00;99797.94;5004402;28;20212;-67
2023/12/23 10:07:32;;;;;;;0.40;0.40;;;;;;;9.41;100.00;99799.72;4985793;28;20207;-69
2023/12/23 10:09:59;;;;;;;0.60;0.40;;;;;;;9.39;100.00;99788.25;4984154;28;20236;-68
2023/12/23 10:12:26;;;;;;;0.83;0.40;;;;;;;9.46;100.00;99771.56;4987998;28;20611;-66
2023/12/23 10:14:53;;;;;;;0.83;0.50;;;;;;;9.48;100.00;99780.38;4984578;28;20212;-67
2023/12/23 10:17:19;;;;;;;0.40;0.40;;;;;;;9.51;100.00;99784.81;4989262;28;20228;-67
2023/12/23 10:19:49;;;;;;;4.33;0.40;;;;;;;9.56;100.00;99791.03;4988091;28;20225;-70
2023/12/23 10:22:18;;;;;;;0.40;0.40;;;;;;;9.61;100.00;99776.09;4986891;28;20201;-67
2023/12/23 10:24:44;;;;;;;0.40;0.40;;;;;;;9.59;100.00;99784.00;4988415;28;20206;-68
2023/12/23 10:27:15;;;;;;;0.40;0.40;;;;;;;9.64;100.00;99786.69;4988853;28;20300;-68
2023/12/23 10:29:44;;;;;;;0.30;0.30;;;;;;;9.70;100.00;99774.41;4982745;28;20239;-69
2023/12/23 10:32:12;;;;;;;0.40;0.40;;;;;;;9.72;100.00;99780.59;4988337;28;20235;-68
2023/12/23 10:34:49;;;;;;;0.40;0.40;;;;;;;9.74;100.00;99770.91;4987188;28;20303;-69
2023/12/23 10:37:17;;;;;;;0.40;0.40;;;;;;;9.77;100.00;99763.88;4989254;28;20239;-69
2023/12/23 10:39:50;;;;;;;0.40;0.37;;;;;;;9.79;100.00;99756.81;5000846;28;20621;-68
2023/12/23 10:42:22;;;;;;;0.30;0.30;;;;;;;9.87;100.00;99763.03;4986959;28;20289;-68
2023/12/23 10:44:51;;;;;;;0.80;0.30;;;;;;;9.83;100.00;99766.53;4985508;28;20233;-67
2023/12/23 10:47:17;;;;;;;0.30;0.30;;;;;;;9.87;100.00;99778.91;4987769;28;20313;-68
2023/12/23 10:49:46;;;;;;;0.33;0.30;;;;;;;9.80;100.00;99777.09;4987880;28;20254;-67
2023/12/23 10:52:13;;;;;;;0.60;0.30;;;;;;;9.78;100.00;99790.31;4989134;28;20217;-69
2023/12/23 10:54:40;;;;;;;1.50;0.40;;;;;;;9.74;100.00;99793.81;4983002;28;20582;-68
2023/12/23 10:57:06;;;;;;;0.30;0.30;;;;;;;9.63;100.00;99787.56;4988540;28;20623;-67
2023/12/23 10:59:34;;;;;;;0.60;0.60;;;;;;;9.57;100.00;99777.81;4986034;28;20340;-66
2023/12/23 11:02:18;;;;;;;0.30;0.30;;;;;;;9.50;100.00;99786.56;5007546;28;20285;-67
2023/12/23 11:04:49;;;;;;;0.50;0.40;;;;;;;9.49;100.00;99810.34;4994005;28;20223;-70
2023/12/23 11:07:17;;;;;;;0.40;0.40;;;;;;;9.52;100.00;99813.00;4997959;28;20207;-70
2023/12/23 11:09:47;;;;;;;0.53;0.40;;;;;;;9.52;100.00;99815.66;4989086;28;20235;-68
2023/12/23 11:12:15;;;;;;;0.97;0.30;;;;;;;9.56;100.00;99815.69;5012533;28;20213;-68
2023/12/23 11:14:41;;;;;;;0.43;0.40;;;;;;;9.59;100.00;99810.44;4998927;28;20214;-67
2023/12/23 11:17:27;;;;;;;0.90;0.50;;;;;;;9.60;100.00;99812.19;4995285;28;20214;-70
2023/12/23 11:20:03;;;;;;;0.40;0.40;;;;;;;9.59;100.00;99798.97;4999243;28;20228;-70
2023/12/23 11:22:36;;;;;;;0.43;0.40;;;;;;;9.65;100.00;99813.16;5001358;28;20210;-70
2023/12/23 11:25:03;;;;;;;0.90;0.50;;;;;;;9.53;100.00;99799.81;4997882;28;20229;-70
2023/12/23 11:27:31;;;;;;;1.10;0.80;;;;;;;9.56;100.00;99815.69;4999222;28;20295;-70
2023/12/23 11:30:06;;;;;;;0.50;0.50;;;;;;;9.54;100.00;99809.50;4999380;28;20321;-70
2023/12/23 11:32:37;;;;;;;0.73;0.60;;;;;;;9.58;100.00;99810.41;4999582;28;20229;-70
2023/12/23 11:35:08;;;;;;;0.50;0.50;;;;;;;9.62;100.00;99809.59;4990221;28;20204;-72